»·PEaware :: N4922Z KOLM-KGEG

N4922Z :: KOLM-KGEG

FLIGHT INFORMATION

Flight Status: Arrived
Operator: Privately registered:
United States
More flights under this callsign
Pilot: William N. (15320)
Aircraft: MITSUBISHI MU-2 MARQUISE
(MU2)
More flights by this aircraft type
Origin: KOLM Olympia
United States
Destination: KGEG Spokane Intl
United States
More flights between these airports :: More routes between these airports
Route: ZADON ZELAK ZIRAN ZOOMR ZOOMR1
File this flight plan on PilotEdge
Remarks:
Altitude:
(Current/Filed)
21,000ft
Speed:
(Current/Filed)
250kts
Departed: 03-Aug-18 12:58 PM
Arrived: 03-Aug-18 02:06 PM
Distance/Time
Traveled:
222nm/1:08
Distance/Time
To Go:
Arrived

Flight Plot

Page will automatically refresh every two minutes.

Flight plan parsing failed; only flown route is shown


Map Options




Map Legend


Flown Route
Filed Route
Departure Airport
Arrival Airport
Navaid (VOR, NDB)
Fix

Horizontal Profiles

Position Reports

Time Latitude Longitude Heading Altitude Ground
Speed
03-Aug-18 12:47 46.975359 -122.898919 281 196ft 0kts
03-Aug-18 12:48 46.975359 -122.898919 281 196ft 0kts
03-Aug-18 12:49 46.975359 -122.898919 281 196ft 0kts
03-Aug-18 12:50 46.975359 -122.898919 281 196ft 0kts
03-Aug-18 12:51 46.975359 -122.898919 281 196ft 0kts
03-Aug-18 12:52 46.975359 -122.898919 281 196ft 0kts
03-Aug-18 12:53 46.975359 -122.898919 281 196ft 0kts
03-Aug-18 12:54 46.975359 -122.898919 281 196ft 0kts
03-Aug-18 12:55 46.975879 -122.899038 12 195ft 3kts
03-Aug-18 12:56 46.976300 -122.900379 218 195ft 5kts
03-Aug-18 12:57 46.976163 -122.901237 279 195ft 0kts
03-Aug-18 12:58 46.976169 -122.901295 279 195ft 3kts
03-Aug-18 12:59 46.965819 -122.905347 192 314ft 144kts
03-Aug-18 13:00 46.937196 -122.863805 81 2399ft 217kts
03-Aug-18 13:01 46.948534 -122.765110 79 3586ft 265kts
03-Aug-18 13:02 46.953728 -122.666633 120 6024ft 235kts
03-Aug-18 13:03 46.956192 -122.586570 54 8204ft 210kts
03-Aug-18 13:04 46.989405 -122.520002 37 10172ft 200kts
03-Aug-18 13:05 47.030338 -122.465363 37 11995ft 200kts
03-Aug-18 13:06 47.071104 -122.410430 38 13693ft 199kts
03-Aug-18 13:07 47.112336 -122.354710 38 15119ft 206kts
03-Aug-18 13:08 47.154467 -122.297644 38 16356ft 212kts
03-Aug-18 13:09 47.197448 -122.239281 38 17360ft 218kts
03-Aug-18 13:10 47.242555 -122.177899 39 18321ft 224kts
03-Aug-18 13:11 47.288081 -122.115782 39 19301ft 225kts
03-Aug-18 13:12 47.334323 -122.052542 39 20116ft 229kts
03-Aug-18 13:13 47.381146 -121.988327 39 20861ft 232kts
03-Aug-18 13:14 47.429651 -121.921726 39 21188ft 251kts
03-Aug-18 13:15 47.482762 -121.848521 39 21186ft 269kts
03-Aug-18 13:16 47.538282 -121.771762 40 21184ft 278kts
03-Aug-18 13:17 47.561023 -121.666255 89 21185ft 288kts
03-Aug-18 13:18 47.559791 -121.549209 90 21221ft 279kts
03-Aug-18 13:19 47.558172 -121.432662 90 21222ft 287kts
03-Aug-18 13:20 47.556381 -121.313820 91 21219ft 291kts
03-Aug-18 13:21 47.554460 -121.194379 91 21219ft 291kts
03-Aug-18 13:22 47.552385 -121.074274 91 21219ft 292kts
03-Aug-18 13:23 47.550188 -120.953979 91 21219ft 292kts
03-Aug-18 13:24 47.547876 -120.834072 91 21215ft 292kts
03-Aug-18 13:25 47.545393 -120.710928 91 20787ft 304kts
03-Aug-18 13:26 47.542668 -120.584513 91 20273ft 311kts
03-Aug-18 13:27 47.539765 -120.455695 91 19699ft 315kts
03-Aug-18 13:28 47.534776 -120.326170 94 19109ft 317kts
03-Aug-18 13:29 47.528809 -120.195855 94 18505ft 318kts
03-Aug-18 13:30 47.522651 -120.065174 94 17903ft 318kts
03-Aug-18 13:31 47.516362 -119.934559 94 17303ft 318kts
03-Aug-18 13:32 47.509909 -119.803664 94 16705ft 319kts
03-Aug-18 13:33 47.503329 -119.673115 94 16110ft 319kts
03-Aug-18 13:34 47.496580 -119.542394 94 15510ft 315kts
03-Aug-18 13:35 47.495303 -119.518036 94 15395ft 313kts
03-Aug-18 13:36 47.493356 -119.481032 94 15221ft 311kts
03-Aug-18 13:37 47.486592 -119.354121 94 14623ft 308kts
03-Aug-18 13:38 47.479771 -119.228769 94 14019ft 307kts
03-Aug-18 13:39 47.472819 -119.103262 94 13417ft 304kts
03-Aug-18 13:40 47.465983 -118.982694 94 12797ft 288kts
03-Aug-18 13:41 47.459285 -118.866515 94 12191ft 281kts
03-Aug-18 13:42 47.452587 -118.752300 94 11589ft 277kts
03-Aug-18 13:43 47.445812 -118.638704 94 10998ft 276kts
03-Aug-18 13:44 47.439176 -118.529351 94 10962ft 260kts
03-Aug-18 13:45 47.433405 -118.424611 93 10989ft 252kts
03-Aug-18 13:46 47.428040 -118.323022 94 10999ft 252kts
03-Aug-18 13:47 47.438455 -118.223235 65 11000ft 250kts
03-Aug-18 13:48 47.450840 -118.121433 84 10615ft 265kts
03-Aug-18 13:49 47.456790 -118.010250 84 9563ft 273kts
03-Aug-18 13:50 47.462445 -117.906257 84 8992ft 228kts
03-Aug-18 13:51 47.467120 -117.818820 84 8658ft 213kts
03-Aug-18 13:52 47.472077 -117.730957 84 6967ft 219kts
03-Aug-18 13:53 47.480942 -117.642382 57 5252ft 219kts
03-Aug-18 13:54 47.511897 -117.576270 53 5002ft 179kts
03-Aug-18 13:55 47.539989 -117.517230 53 5000ft 175kts
03-Aug-18 13:56 47.572450 -117.456127 34 5008ft 198kts
03-Aug-18 13:57 47.616686 -117.408949 33 4996ft 186kts
03-Aug-18 13:58 47.657788 -117.365029 33 5004ft 181kts
03-Aug-18 13:59 47.699138 -117.320944 34 4191ft 186kts
03-Aug-18 14:00 47.738024 -117.278552 34 4006ft 179kts
03-Aug-18 14:01 47.760060 -117.312718 237 4009ft 179kts
03-Aug-18 14:02 47.730569 -117.367709 229 3975ft 156kts
03-Aug-18 14:03 47.701218 -117.412746 227 3979ft 148kts
03-Aug-18 14:04 47.674495 -117.453414 226 3477ft 126kts
03-Aug-18 14:05 47.648792 -117.491879 225 2921ft 129kts
03-Aug-18 14:06 47.625239 -117.527322 223 2349ft 100kts
03-Aug-18 14:07 47.620807 -117.532033 135 2358ft 0kts
03-Aug-18 14:08 47.621014 -117.530156 46 2357ft 8kts
03-Aug-18 14:09 47.620498 -117.528110 2 2358ft 0kts

Navigation Log

Ident Type
Flight plan parsing failed, navigation log unavailable